Terminal Aerodrome Forecast
Issued by NWS Pocatello, ID

Home | Current Version | Previous Version | Text Only | Print | Product List | Glossary On
Versions: 1 2 3 4 5 6 7 8 9 10 11 12 13 14 15 16 17 18
000
FTUS45 KPIH 181721
TAFBYI
TAF
KBYI 181721Z 1818/1918 VRB05KT P6SM SCT015 OVC035
     FM182000 25010KT P6SM SCT035 BKN110
     FM190200 18006KT P6SM BKN120=

USA.gov is the U.S. government's official web portal to all federal, state and local government web resources and services.